Tiempo atmosférico en la estación meteorológica de Benasque, Huesca (1120 m.)



Fecha
DESCASC
Temp. máxima en grados centígrados (hora)
DESCASC
Temp. mínima en grados centígrados (hora)
DESCASC
Temp. media en grados centígrados
DESCASC
Racha de viento máxima en m/sg (hora)
DESCASC
Velocidad máxima media en intervalos de 10 minutos(hora)
DESCASC
Precipitaciones diarias en mm
DESCASC
Precipitaciones de 00:00 a 06:00 en mm
DESCASC
Precipitaciones de 06:00 a 12:00 en mm
DESCASC
Precipitaciones de 12:00 a 18:00 en mm
DESCASC
Precipitaciones de 18:00 a 24:00 en mm
DESCASC
23-05-2018 22.1 (14:20) 5.4 (05:50) 13.8 8.33 (16:20) 4.44 (15:40) 4.2 0 0 0 4.2
22-05-2018 19.6 (14:50) 6.3 (06:20) 13 8.61 (15:50) 5.56 (17:50) 0.8 0.2 0 0 0.6
21-05-2018 19.4 (17:10) 8.4 (06:10) 13.9 7.5 (15:40) 4.72 (12:30) 6.6 0 0 0 6.6
20-05-2018 17.6 (13:00) 6.8 (00:00) 12.2 7.78 (17:20) 5 (17:20) 0.8 0 0 0 0.8
19-05-2018 22.9 (14:50) 3.5 (00:00) 13.2 11.94 (15:10) 5 (17:10) 6 0 0 5.2 0.8
18-05-2018 21.1 (14:40) 3.8 (00:00) 12.5 8.33 (19:00) 4.72 (16:20) 0 0 0 0 0
17-05-2018 21.5 (12:40) 2.6 (00:00) 12 12.5 (17:10) 6.11 (17:10) 0 0 0 0 0
16-05-2018 20 (16:10) 4.1 (00:00) 12 11.39 (12:40) 6.67 (12:00) 0 0 0 0 0
15-05-2018 12.6 (12:30) 7 (00:00) 9.8 13.61 (05:10) 6.39 (05:10) 0 0 0 0 0
14-05-2018 11.4 (15:50) 1.7 (00:00) 6.5 16.39 (16:40) 9.72 (16:40) 0 0 0 0 0
13-05-2018 11.3 (15:40) 3.4 (00:00) 7.4 14.44 (00:50) 7.78 (06:30) 0 0 0 0 0
12-05-2018 19 (14:40) 5.3 (00:00) 12.2 20.28 (23:10) 9.72 (23:40) 9.8 1.2 0.2 2.2 6.2
11-05-2018 22.3 (16:10) 3.3 (06:20) 12.8 7.22 (14:00) 4.72 (18:10) 0 0 0 0 0
10-05-2018 20.2 (13:20) 6.4 (00:00) 13.3 13.89 (06:00) 5.83 (05:50) 0 0 0 0 0
09-05-2018 19.8 (17:20) 4 (00:00) 11.9 13.61 (14:30) 6.39 (13:50) 0 0 0 0 0
08-05-2018 19.1 (16:20) 7.3 (00:00) 13.2 10.28 (22:50) 5.28 (12:40) 15 15 0 0 0
07-05-2018 23 (14:40) 7.9 (00:00) 15.5 13.61 (16:30) 7.5 (16:30) 10 0 0 1 9
06-05-2018 20.6 (14:40) 2.6 (00:00) 11.6 10.56 (14:20) 5.83 (14:20) 0 0 0 0 0
05-05-2018 18.5 (17:10) 6.8 (00:00) 12.7 15 (06:20) 7.5 (01:40) 0 0 0 0 0
04-05-2018 15.3 (15:10) 8.1 (00:00) 11.7 21.39 (07:10) 11.67 (11:00) 0 0 0 0 0
03-05-2018 9.6 (17:20) 5.7 (00:00) 7.7 19.17 (21:10) 10 (18:00) 6.6 2.8 3.4 0.4 0
02-05-2018 14.8 (15:10) -3.4 (-00:0) 5.7 9.72 (16:40) 4.72 (17:50) 0 0 0 0 0
01-05-2018 10.6 (14:20) -2.6 (07:00) 4 11.67 (10:30) 6.39 (11:20) 0 0 0 0 0
30-04-2018 9.7 (13:10) -0.2 (00:00) 4.7 9.17 (14:10) 4.72 (14:10) 0.6 0.4 0 0.2 0
29-04-2018 9.5 (02:10) 1.8 (00:00) 5.6 11.67 (02:10) 6.11 (03:30) 48.4 32.6 8.8 6.4 0.6
28-04-2018 17.8 (16:20) 6.4 (00:00) 12.1 11.39 (16:40) 6.39 (16:00) 14.8 3.8 0 0 11
27-04-2018 21.8 (13:00) 6.3 (00:00) 14 10.28 (16:00) 4.44 (12:20) 12.2 0 0 1 11.2
26-04-2018 22.8 (14:20) 5.3 (00:00) 14 6.39 (16:50) 3.89 (12:40) 0.4 0 0 0.4 0
25-04-2018 26.1 (14:50) 4.6 (00:00) 15.4 10.28 (19:10) 6.11 (19:10) 0 0 0 0 0

Gráficas

Temp. máximas Temp. mínimas Temp. medias Precipitaciones Rachas de viento máximas Velocidades máximas media en intervalos de 10 minutos

Datos horarios

Fecha y hora oficial Temperatura (ºC) Velocidad del viento (km/h) Dirección del viento Racha (km/h) Dirección de racha Precipitación (mm) Presión (hPa) Tendencia (hPa) Humedad (%)
2018-05-24 23:00:00 12.8 0 Calma 10 Norte 0 -- -- 86
2018-05-24 22:00:00 14.6 0 Calma 7 Norte 0 -- -- 83
2018-05-24 21:00:00 17 2 Este 6 Sur 0 -- -- 76
2018-05-24 20:00:00 19.2 0 Calma 17 Oeste 0 -- -- 62
2018-05-24 19:00:00 21 9 Sudoeste 24 Oeste 0 -- -- 50
2018-05-24 18:00:00 22.4 10 Sudoeste 19 Sudoeste 0 -- -- 48
2018-05-24 17:00:00 22.7 10 Sudoeste 26 Oeste 0 -- -- 45
2018-05-24 16:00:00 21.2 14 Oeste 24 Oeste 0 -- -- 47
2018-05-24 15:00:00 20.9 12 Sudoeste 22 Sudoeste 0 -- -- 52
2018-05-24 14:00:00 20.5 4 Sudeste 12 Sudoeste 0 -- -- 56
2018-05-24 13:00:00 19.9 0 Calma 9 Norte 0 -- -- 55
2018-05-24 12:00:00 16.2 0 Calma -- -- 0 -- -- 72
2018-05-24 11:00:00 13.9 0 Calma -- -- 0 -- -- 83
2018-05-24 10:00:00 11.6 0 Calma 9 Sudoeste 0 -- -- 95
2018-05-24 09:00:00 11.3 4 Sudoeste 8 Sudoeste 0 -- -- 95
2018-05-24 08:00:00 10.5 4 Sur 17 Norte 1 -- -- 97
2018-05-24 07:00:00 10 5 Sudoeste 10 Sudoeste 1.2 -- -- 98
2018-05-24 06:00:00 9.9 0 Calma 5 Oeste 0 -- -- 97
2018-05-24 05:00:00 9.8 0 Calma -- -- 0 -- -- 96
2018-05-24 04:00:00 10.3 0 Calma 3 Sudeste 0 -- -- 96
2018-05-24 03:00:00 10.8 2 Este 6 Oeste 0 -- -- 96
2018-05-24 02:00:00 11.2 2 Sur 7 Sudoeste 0 -- -- 96
2018-05-24 01:00:00 11.2 0 Calma 9 Sudoeste 0 -- -- 95
2018-05-24 00:00:00 11.5 2 Nordeste 10 Sudoeste 0 -- -- 95
2018-05-23 23:00:00 11.8 3 Este 7 Sur 3.2 -- -- 93
2018-05-23 22:00:00 13.1 9 Sudoeste 21 Sudoeste 1 -- -- 87
2018-05-23 21:00:00 14.8 0 Calma -- -- 0 -- -- 80
2018-05-23 20:00:00 15.8 0 Calma 18 Sudoeste 0 -- -- 66
2018-05-23 19:00:00 17.8 6 Sudoeste 10 Sudoeste 0 -- -- 59
2018-05-23 18:00:00 16.5 4 Noroeste 20 Sudoeste 0 -- -- 61
2018-05-23 17:00:00 16.9 9 Sudoeste 30 Sudoeste 0 -- -- 61
2018-05-23 16:00:00 18.9 14 Sudoeste 27 Sur 0 -- -- 48
2018-05-23 15:00:00 21 14 Sudoeste 24 Sudoeste 0 -- -- 37
2018-05-23 14:00:00 21.5 11 Oeste 26 Oeste 0 -- -- 37
2018-05-23 13:00:00 20.5 12 Oeste 23 Oeste 0 -- -- 38
2018-05-23 12:00:00 19 6 Sudoeste 17 Oeste 0 -- -- 52
2018-05-23 11:00:00 16.9 5 Oeste 10 Sudoeste 0 -- -- 57
2018-05-23 10:00:00 13.8 0 Calma 0 Calma 0 -- -- 72
2018-05-23 09:00:00 9.9 0 Calma -- -- 0 -- -- 95
2018-05-23 08:00:00 6.7 0 Calma -- -- 0 -- -- 98
2018-05-23 07:00:00 5.9 0 Calma -- -- 0 -- -- 98
2018-05-23 06:00:00 5.4 0 Calma -- -- 0 -- -- 97
2018-05-23 05:00:00 5.7 0 Calma -- -- 0 -- -- 96
2018-05-23 04:00:00 6.5 0 Calma -- -- 0 -- -- 96
2018-05-23 03:00:00 6.7 0 Calma -- -- 0 -- -- 95
2018-05-23 02:00:00 7.6 0 Calma 4 Este 0 -- -- 96
2018-05-23 01:00:00 7.9 0 Calma 5 Sudoeste 0 -- -- 94
2018-05-23 00:00:00 9.1 0 Calma 4 Sur 0 -- -- 92
2018-05-22 23:00:00 10.2 0 Calma 5 Nordeste 0 -- -- 93
2018-05-22 22:00:00 10.8 2 Sudoeste 6 Sudoeste 0 -- -- 90
2018-05-22 21:00:00 12.3 0 Calma 3 Sudeste 0 -- -- 86
2018-05-22 20:00:00 12.7 3 Sudeste 14 Sudoeste 0 -- -- 81
2018-05-22 19:00:00 13.9 3 Sudeste 15 Sudeste 0.6 -- -- 75
2018-05-22 18:00:00 14.1 8 Sur 30 Oeste 0 -- -- 71
2018-05-22 17:00:00 17.9 18 Oeste 28 Oeste 0 -- -- 55
2018-05-22 16:00:00 18.8 17 Oeste 31 Oeste 0 -- -- 52
2018-05-22 15:00:00 19.4 19 Sudoeste 27 Oeste 0 -- -- 45
2018-05-22 14:00:00 18.4 13 Oeste 30 Sudoeste 0 -- -- 51
2018-05-22 13:00:00 18.6 9 Sudoeste 21 Sudoeste 0 -- -- 50
2018-05-22 12:00:00 16.7 9 Oeste 22 Sudoeste 0 -- -- 58
2018-05-22 11:00:00 14.4 3 Sur 9 Oeste 0 -- -- 78
2018-05-22 10:00:00 11 3 Oeste 8 Sudoeste 0 -- -- 85
2018-05-22 09:00:00 8.4 2 Sudoeste 6 Sudoeste 0 -- -- 97
2018-05-22 08:00:00 7.2 0 Calma -- -- 0 -- -- 98
2018-05-22 07:00:00 6.4 0 Calma 4 Sudeste 0 -- -- 98
2018-05-22 06:00:00 6.6 0 Calma -- -- 0 -- -- 97
2018-05-22 05:00:00 6.7 0 Calma 4 Sudoeste 0 -- -- 97
2018-05-22 04:00:00 7 3 Sudoeste 6 Sudoeste 0 -- -- 97
2018-05-22 03:00:00 7.4 0 Calma -- -- 0 -- -- 95
2018-05-22 02:00:00 8.6 0 Calma -- -- 0 -- -- 95
2018-05-22 01:00:00 9.3 0 Calma -- -- 0.2 -- -- 94
2018-05-22 00:00:00 9.8 0 Calma -- -- 1 -- -- 91
2018-05-21 23:00:00 10.2 0 Calma 4 Sudoeste 1.2 -- -- 95
2018-05-21 22:00:00 10.6 0 Calma 12 Sudoeste 2.8 -- -- 95
2018-05-21 21:00:00 11.1 0 Calma 5 Noroeste 1 -- -- 92
2018-05-21 20:00:00 12.4 3 Noroeste 17 Sur 0.6 -- -- 86
2018-05-21 19:00:00 15.2 5 Sur 26 Oeste 0 -- -- 66
2018-05-21 18:00:00 15.6 14 Sudoeste 24 Sudoeste 0 -- -- 62
2018-05-21 17:00:00 19.2 5 Oeste 24 Sudeste 0 -- -- 46
2018-05-21 16:00:00 15.8 8 Sur 27 Sudeste 0 -- -- 57
2018-05-21 15:00:00 16.6 8 Sudoeste 22 Oeste 0 -- -- 54
2018-05-21 14:00:00 17.5 3 Noroeste 22 Sudoeste 0 -- -- 54
2018-05-21 13:00:00 15.7 14 Oeste 25 Oeste 0 -- -- 60
2018-05-21 12:00:00 16 10 Sudoeste 17 Sudoeste 0 -- -- 61
2018-05-21 11:00:00 15.2 4 Sudoeste 8 Sudoeste 0 -- -- 65
2018-05-21 10:00:00 12 0 Calma 5 Sudoeste 0 -- -- 80
2018-05-21 09:00:00 10.2 0 Calma 0 Calma 0 -- -- 92
2018-05-21 08:00:00 8.9 0 Calma 2 Noroeste 0 -- -- 97
2018-05-21 07:00:00 8.4 3 Sudoeste 6 Sudoeste 0 -- -- 96
2018-05-21 06:00:00 8.5 0 Calma 3 Oeste 0 -- -- 96
2018-05-21 05:00:00 9.1 0 Calma 5 Sudoeste 0 -- -- 96
2018-05-21 04:00:00 9.5 0 Calma 2 Sudeste 0 -- -- 96
2018-05-21 03:00:00 9.5 2 Sudoeste 5 Sudoeste 0 -- -- 96
2018-05-21 02:00:00 9.6 0 Calma -- -- 0 -- -- 95
2018-05-21 01:00:00 9.9 0 Calma -- -- 0 -- -- 95
2018-05-21 00:00:00 10.2 0 Calma -- -- 0 -- -- 94
2018-05-20 23:00:00 10.5 0 Calma 5 Sur 0 -- -- 94
2018-05-20 22:00:00 10.7 0 Calma 3 Sudeste 0 -- -- 92
2018-05-20 21:00:00 11.3 0 Calma 10 Sudoeste 0 -- -- 90
2018-05-20 20:00:00 12 3 Sudoeste 10 Sudoeste 0.6 -- -- 84
2018-05-20 19:00:00 13.3 6 Sudeste 13 Sudoeste 0.2 -- -- 77
2018-05-20 18:00:00 14.5 5 Sur 28 Oeste 0 -- -- 63
2018-05-20 17:00:00 17.4 0 Calma 13 Sudoeste 0 -- -- 48
2018-05-20 16:00:00 17.3 2 Sudoeste 15 Oeste 0 -- -- 49
2018-05-20 15:00:00 16.5 6 Sudoeste 23 Sudoeste 0 -- -- 56
2018-05-20 14:00:00 16.3 6 Sur 20 Sudoeste 0 -- -- 57
2018-05-20 13:00:00 17.6 8 Sur 24 Sudoeste 0 -- -- 51
2018-05-20 12:00:00 16.4 3 Este 10 Sudoeste 0 -- -- 61
2018-05-20 11:00:00 15.2 3 Noroeste 7 Oeste 0 -- -- 66
2018-05-20 10:00:00 11.4 3 Este 6 Nordeste 0 -- -- 80
2018-05-20 09:00:00 8.2 0 Calma -- -- 0 -- -- 95
2018-05-20 08:00:00 6.8 0 Calma -- -- 0 -- -- 97
2018-05-20 07:00:00 7.2 0 Calma 0 Calma 0 -- -- 97
2018-05-20 06:00:00 7.5 0 Calma 5 Sudoeste 0 -- -- 97
2018-05-20 05:00:00 7.8 4 Sudoeste 6 Sudoeste 0 -- -- 97
2018-05-20 04:00:00 8 0 Calma 3 Sudeste 0 -- -- 97
2018-05-20 03:00:00 8.2 0 Calma 6 Oeste 0 -- -- 96
2018-05-20 02:00:00 8.1 0 Calma 0 Calma 0 -- -- 97
2018-05-20 01:00:00 8.1 0 Calma -- -- 0 -- -- 96
2018-05-20 00:00:00 8.2 0 Calma 4 Sudeste 0 -- -- 96
2018-05-19 23:00:00 8.4 0 Calma 10 Sudoeste 0 -- -- 94
2018-05-19 22:00:00 9.7 0 Calma 4 Sudeste 0 -- -- 92
2018-05-19 21:00:00 11.4 2 Sur 13 Sudoeste 0 -- -- 87
2018-05-19 20:00:00 12.3 4 Sur 14 Sudoeste 0 -- -- 84
2018-05-19 19:00:00 12.2 4 Sudoeste 16 Sudeste 0.8 -- -- 84
2018-05-19 18:00:00 12.4 5 Este 36 Este 5.2 -- -- 84
2018-05-19 17:00:00 18.1 17 Sudoeste 31 Sudoeste 0 -- -- 48
2018-05-19 16:00:00 19.6 8 Oeste 43 Noroeste 0 -- -- 46
2018-05-19 15:00:00 22.6 6 Norte 24 Noroeste 0 -- -- 34
2018-05-19 14:00:00 20.6 8 Nordeste 23 Este 0 -- -- 35
2018-05-19 13:00:00 18.4 9 Nordeste 27 Este 0 -- -- 38
2018-05-19 12:00:00 19.4 12 Nordeste 35 Este 0 -- -- 39
2018-05-19 11:00:00 17.6 13 Nordeste 24 Este 0 -- -- 42
2018-05-19 10:00:00 13.1 5 Sudoeste 13 Sudoeste 0 -- -- 60
2018-05-19 09:00:00 7.7 2 Este 5 Este 0 -- -- 92
2018-05-19 08:00:00 4.1 0 Calma -- -- 0 -- -- 96
2018-05-19 07:00:00 3.5 0 Calma -- -- 0 -- -- 95
2018-05-19 06:00:00 4 0 Calma -- -- 0 -- -- 95
2018-05-19 05:00:00 4.6 0 Calma -- -- 0 -- -- 94
2018-05-19 04:00:00 5.2 0 Calma -- -- 0 -- -- 92
2018-05-19 03:00:00 6.3 0 Calma -- -- 0 -- -- 92
2018-05-19 02:00:00 7.5 0 Calma -- -- 0 -- -- 91
2018-05-19 01:00:00 9 0 Calma 3 Este 0 -- -- 90
2018-05-19 00:00:00 10.1 0 Calma 6 Sudoeste 0 -- -- 84
2018-05-18 23:00:00 11.3 2 Sur 6 Oeste 0 -- -- 84
2018-05-18 22:00:00 11.7 0 Calma 10 Sur 0 -- -- 81
2018-05-18 21:00:00 12.8 9 Sudoeste 23 Sudoeste 0 -- -- 72
2018-05-18 20:00:00 14.6 8 Oeste 25 Este 0 -- -- 67
2018-05-18 19:00:00 16.9 10 Nordeste 30 Este 0 -- -- 48
2018-05-18 18:00:00 19.4 14 Sudoeste 26 Oeste 0 -- -- 48
2018-05-18 17:00:00 19.7 13 Sudoeste 27 Sudoeste 0 -- -- 46
2018-05-18 16:00:00 19.4 16 Oeste 25 Sudoeste 0 -- -- 46
2018-05-18 15:00:00 20 8 Nordeste 24 Oeste 0 -- -- 35
2018-05-18 14:00:00 19 13 Oeste 21 Oeste 0 -- -- 48
2018-05-18 13:00:00 18.1 8 Oeste 22 Sudoeste 0 -- -- 48
2018-05-18 12:00:00 16.7 7 Sudoeste 17 Sudoeste 0 -- -- 54
2018-05-18 11:00:00 16.9 5 Sudoeste 10 Sudoeste 0 -- -- 53
2018-05-18 10:00:00 13.8 2 Oeste 6 Sudeste 0 -- -- 58
2018-05-18 09:00:00 8 3 Nordeste 5 Este 0 -- -- 89
2018-05-18 08:00:00 4.1 0 Calma 3 Sudeste 0 -- -- 95
2018-05-18 07:00:00 3.8 0 Calma 5 Este 0 -- -- 94
2018-05-18 06:00:00 4.3 0 Calma 8 Este 0 -- -- 92
2018-05-18 05:00:00 5 0 Calma 2 Nordeste 0 -- -- 91
2018-05-18 04:00:00 6.1 0 Calma 4 Sudeste 0 -- -- 89
2018-05-18 03:00:00 6.9 0 Calma 4 Sudeste 0 -- -- 87
2018-05-18 02:00:00 7.7 0 Calma 6 Sudeste 0 -- -- 85
2018-05-18 01:00:00 8.2 3 Este 7 Este 0 -- -- 83
2018-05-18 00:00:00 9.2 3 Este 7 Este 0 -- -- 77
2018-05-17 23:00:00 11.3 0 Calma 11 Norte 0 -- -- 69
2018-05-17 22:00:00 13.8 7 Norte 26 Este 0 -- -- 54
2018-05-17 21:00:00 15 13 Este 30 Nordeste 0 -- -- 49
2018-05-17 20:00:00 16 12 Nordeste 41 Nordeste 0 -- -- 46
2018-05-17 19:00:00 17 20 Nordeste 40 Este 0 -- -- 45
2018-05-17 18:00:00 17.9 20 Nordeste 45 Este 0 -- -- 42
2018-05-17 17:00:00 18.8 19 Nordeste 35 Nordeste 0 -- -- 41
2018-05-17 16:00:00 20.1 13 Nordeste 29 Este 0 -- -- 37
2018-05-17 15:00:00 19.5 17 Nordeste 32 Este 0 -- -- 36
2018-05-17 14:00:00 20 18 Nordeste 32 Este 0 -- -- 34
2018-05-17 13:00:00 21.1 5 Noroeste 13 Noroeste 0 -- -- 34
2018-05-17 12:00:00 19.9 4 Nordeste 10 Sudoeste 0 -- -- 43
2018-05-17 11:00:00 17.4 3 Sudoeste 8 Este 0 -- -- 50
2018-05-17 10:00:00 13.2 0 Calma 5 Este 0 -- -- 59
2018-05-17 09:00:00 7.5 0 Calma 3 Este 0 -- -- 79
2018-05-17 08:00:00 4.3 0 Calma 5 Nordeste 0 -- -- 90
2018-05-17 07:00:00 2.6 0 Calma 5 Este 0 -- -- 91
2018-05-17 06:00:00 2.9 0 Calma 4 Este 0 -- -- 90
2018-05-17 05:00:00 3.4 0 Calma 6 Sudoeste 0 -- -- 88
2018-05-17 04:00:00 4 0 Calma 3 Nordeste 0 -- -- 89
2018-05-17 03:00:00 4.8 0 Calma 5 Sudeste 0 -- -- 85
2018-05-17 02:00:00 6.1 0 Calma 8 Sudoeste 0 -- -- 81
2018-05-17 01:00:00 7.9 4 Sudoeste 9 Sudoeste 0 -- -- 73
2018-05-17 00:00:00 9.1 2 Sudeste 10 Norte 0 -- -- 68
2018-05-16 23:00:00 11.8 4 Sudoeste 25 Nordeste 0 -- -- 61
2018-05-16 22:00:00 13.5 11 Nordeste 31 Este 0 -- -- 51
2018-05-16 21:00:00 14.1 13 Nordeste 38 Este 0 -- -- 51
2018-05-16 20:00:00 14.7 16 Nordeste 38 Nordeste 0 -- -- 50
2018-05-16 19:00:00 17 18 Nordeste 39 Este 0 -- -- 48
2018-05-16 18:00:00 18.6 15 Nordeste 37 Este 0 -- -- 41
2018-05-16 17:00:00 19.7 12 Nordeste 28 Nordeste 0 -- -- 39
2018-05-16 16:00:00 19.2 12 Nordeste 26 Este 0 -- -- 42
2018-05-16 15:00:00 17.9 11 Nordeste 35 Nordeste 0 -- -- 44
2018-05-16 14:00:00 19.9 13 Nordeste 32 Este 0 -- -- 39
2018-05-16 13:00:00 18.8 15 Nordeste 41 Este 0 -- -- 44
2018-05-16 12:00:00 16.2 24 Este 38 Este 0 -- -- 44
2018-05-16 11:00:00 17.6 16 Nordeste 32 Nordeste 0 -- -- 45
2018-05-16 10:00:00 15.4 13 Nordeste 37 Este 0 -- -- 45
2018-05-16 09:00:00 8.5 3 Oeste 6 Sudoeste 0 -- -- 78
2018-05-16 08:00:00 4.2 0 Calma 6 Este 0 -- -- 90
2018-05-16 07:00:00 4.3 0 Calma 6 Sudeste 0 -- -- 88
2018-05-16 06:00:00 5.6 0 Calma 11 Sudoeste 0 -- -- 82
2018-05-16 05:00:00 8.2 5 Oeste 21 Este 0 -- -- 71
2018-05-16 04:00:00 11.8 10 Nordeste 26 Este 0 -- -- 56
2018-05-16 03:00:00 11.3 7 Nordeste 28 Este 0 -- -- 61
2018-05-16 02:00:00 11.5 9 Este 34 Este 0 -- -- 62
2018-05-16 01:00:00 11.5 15 Nordeste 31 Nordeste 0 -- -- 61
2018-05-16 00:00:00 11.3 11 Nordeste 25 Nordeste 0 -- -- 64
2018-05-15 23:00:00 11.4 13 Nordeste 32 Nordeste 0 -- -- 63
2018-05-15 22:00:00 11.4 14 Nordeste 31 Este 0 -- -- 65
2018-05-15 21:00:00 11.3 17 Nordeste 31 Este 0 -- -- 65
2018-05-15 20:00:00 11.5 11 Nordeste 29 Nordeste 0 -- -- 63
2018-05-15 19:00:00 11.6 14 Nordeste 39 Este 0 -- -- 61
2018-05-15 18:00:00 12.1 11 Nordeste 28 Nordeste 0 -- -- 60
2018-05-15 17:00:00 11.8 12 Nordeste 28 Este 0 -- -- 61
2018-05-15 16:00:00 11.6 10 Nordeste 35 Este 0 -- -- 63
2018-05-15 15:00:00 12.4 14 Nordeste 40 Nordeste 0 -- -- 58
2018-05-15 14:00:00 12.3 11 Nordeste 39 Este 0 -- -- 57
2018-05-15 13:00:00 12.2 19 Nordeste 37 Este 0 -- -- 56
2018-05-15 12:00:00 11.7 13 Nordeste 43 Este 0 -- -- 57
2018-05-15 11:00:00 11.7 15 Nordeste 40 Este 0 -- -- 58
2018-05-15 10:00:00 11.1 14 Nordeste 42 Este 0 -- -- 55
2018-05-15 09:00:00 9.8 12 Nordeste 38 Este 0 -- -- 62
2018-05-15 08:00:00 7.5 5 Oeste 30 Nordeste 0 -- -- 70
2018-05-15 07:00:00 7 7 Oeste 33 Este 0 -- -- 69
2018-05-15 06:00:00 8 7 Sur 49 Este 0 -- -- 63
2018-05-15 05:00:00 9 21 Nordeste 46 Nordeste 0 -- -- 57
2018-05-15 04:00:00 7.4 8 Nordeste 20 Norte 0 -- -- 66
2018-05-15 03:00:00 7.8 8 Nordeste 24 Nordeste 0 -- -- 63
2018-05-15 02:00:00 7.9 8 Norte 29 Este 0 -- -- 61
2018-05-15 01:00:00 8.6 17 Nordeste 39 Nordeste 0 -- -- 57
2018-05-15 00:00:00 8.6 17 Nordeste 45 Nordeste 0 -- -- 56
2018-05-14 23:00:00 8.6 17 Nordeste 44 Este 0 -- -- 56
2018-05-14 22:00:00 8.6 22 Nordeste 48 Este 0 -- -- 54
2018-05-14 21:00:00 8.2 18 Este 56 Nordeste 0 -- -- 54
2018-05-14 20:00:00 8.7 20 Este 48 Este 0 -- -- 53
2018-05-14 19:00:00 9 27 Este 56 Este 0 -- -- 51
2018-05-14 18:00:00 10.4 25 Nordeste 58 Este 0 -- -- 48
2018-05-14 17:00:00 10 33 Este 59 Nordeste 0 -- -- 48
2018-05-14 16:00:00 11.1 27 Nordeste 52 Nordeste 0 -- -- 44
2018-05-14 15:00:00 10.9 23 Nordeste 42 Este 0 -- -- 42
2018-05-14 14:00:00 9.2 18 Nordeste 46 Nordeste 0 -- -- 45
2018-05-14 13:00:00 8.1 23 Este 43 Este 0 -- -- 50
2018-05-14 12:00:00 9.1 22 Este 48 Este 0 -- -- 44
2018-05-14 11:00:00 8.8 19 Este 49 Este 0 -- -- 44
2018-05-14 10:00:00 8.3 19 Este 45 Nordeste 0 -- -- 44
2018-05-14 09:00:00 7.3 16 Este 39 Este 0 -- -- 49
2018-05-14 08:00:00 5.6 17 Este 47 Este 0 -- -- 51
2018-05-14 07:00:00 4.7 13 Nordeste 29 Este 0 -- -- 49
2018-05-14 06:00:00 4.3 8 Nordeste 19 Norte 0 -- -- 50
2018-05-14 05:00:00 1.8 5 Este 10 Sudeste 0 -- -- 74
2018-05-14 04:00:00 3.5 0 Calma 12 Norte 0 -- -- 76
2018-05-14 03:00:00 3.8 9 Norte 26 Este 0 -- -- 72
2018-05-14 02:00:00 4.9 13 Nordeste 25 Este 0 -- -- 62
2018-05-14 01:00:00 5.5 12 Nordeste 31 Este 0 -- -- 51
2018-05-11 20:00:00 -- -- -- -- -- -- -- -- --
2018-05-11 19:00:00 20.8 4 Sur 23 Sudoeste 0 -- -- 45
2018-05-11 18:00:00 21.9 15 Oeste 24 Oeste 0 -- -- 40
2018-05-11 17:00:00 22.2 14 Sudoeste 24 Sudoeste 0 -- -- 39
2018-05-11 16:00:00 22.1 14 Oeste 25 Sudoeste 0 -- -- 39
2018-05-11 15:00:00 21.1 14 Sudoeste 24 Oeste 0 -- -- 37
2018-05-11 14:00:00 19.8 16 Sudoeste 26 Sudoeste 0 -- -- 40
2018-05-11 13:00:00 19.1 9 Sudoeste 21 Oeste 0 -- -- 39
2018-05-11 12:00:00 17.7 7 Oeste 14 Oeste 0 -- -- 42
2018-05-11 11:00:00 15.7 3 Oeste 6 Oeste 0 -- -- 52
2018-05-11 10:00:00 12.4 2 Oeste 6 Oeste 0 -- -- 62
2018-05-11 09:00:00 6.5 0 Calma -- -- 0 -- -- 94
2018-05-11 08:00:00 3.7 0 Calma -- -- 0 -- -- 95
2018-05-11 07:00:00 3.6 0 Calma -- -- 0 -- -- 95
2018-05-11 06:00:00 3.5 0 Calma -- -- 0 -- -- 94
2018-05-11 05:00:00 4.2 0 Calma -- -- 0 -- -- 91
2018-05-11 04:00:00 5.1 0 Calma -- -- 0 -- -- 90
2018-05-11 03:00:00 6.4 0 Calma -- -- 0 -- -- 87
2018-05-11 02:00:00 7.1 0 Calma -- -- 0 -- -- 86
2018-05-11 01:00:00 6.8 0 Calma 5 Sudeste 0 -- -- 84
2018-05-11 00:00:00 6.4 3 Sudeste 5 Sudeste 0 -- -- 83
2018-05-10 23:00:00 8 0 Calma 16 Este 0 -- -- 75
2018-05-10 22:00:00 10.6 7 Nordeste 28 Norte 0 -- -- 62
2018-05-10 21:00:00 11.2 17 Norte 29 Norte 0 -- -- 57
2018-05-10 20:00:00 12.5 14 Nordeste 30 Nordeste 0 -- -- 54
2018-05-10 19:00:00 13.3 16 Nordeste 37 Nordeste 0 -- -- 52
2018-05-10 18:00:00 16 17 Nordeste 43 Nordeste 0 -- -- 47
2018-05-10 17:00:00 14.8 19 Nordeste 46 Este 0 -- -- 49
2018-05-10 16:00:00 14.9 18 Nordeste 43 Nordeste 0 -- -- 48
2018-05-10 15:00:00 17.3 19 Nordeste 38 Norte 0 -- -- 43
2018-05-10 14:00:00 19 14 Nordeste 31 Nordeste 0 -- -- 36
2018-05-10 13:00:00 19.6 10 Norte 24 Norte 0 -- -- 36
2018-05-10 12:00:00 16.9 10 Norte 22 Norte 0 -- -- 41
2018-05-10 11:00:00 15.8 8 Nordeste 16 Norte 0 -- -- 40
2018-05-10 10:00:00 13 0 Calma 8 Oeste 0 -- -- 52
2018-05-10 09:00:00 11.5 5 Sudoeste 10 Sudoeste 0 -- -- 54
2018-05-10 08:00:00 10.4 3 Sur 22 Nordeste 0 -- -- 61
2018-05-10 07:00:00 10.8 9 Nordeste 39 Este 0 -- -- 51
2018-05-10 06:00:00 11 18 Nordeste 50 Nordeste 0 -- -- 54
2018-05-10 05:00:00 11.5 13 Nordeste 30 Este 0 -- -- 55
2018-05-10 04:00:00 11.8 11 Norte 23 Norte 0 -- -- 58
2018-05-10 03:00:00 12 10 Norte 23 Este 0 -- -- 58
2018-05-10 02:00:00 12.6 10 Nordeste 30 Este 0 -- -- 60
2018-05-10 01:00:00 12.7 12 Nordeste 33 Este 0 -- -- 61
2018-05-10 00:00:00 13.1 13 Nordeste 32 Nordeste 0 -- -- 59
2018-05-09 23:00:00 12.9 13 Nordeste 37 Este 0 -- -- 62
2018-05-09 22:00:00 13.4 13 Nordeste 31 Nordeste 0 -- -- 58
2018-05-09 21:00:00 13.7 15 Nordeste 32 Norte 0 -- -- 56
2018-05-09 20:00:00 15.1 16 Norte 31 Norte 0 -- -- 52
2018-05-09 19:00:00 17.6 14 Nordeste 30 Nordeste 0 -- -- 44
2018-05-09 18:00:00 19.4 15 Nordeste 30 Este 0 -- -- 40
2018-05-09 17:00:00 19.6 15 Nordeste 36 Nordeste 0 -- -- 39
2018-05-09 16:00:00 19.4 19 Nordeste 38 Nordeste 0 -- -- 38
2018-05-09 15:00:00 19.3 19 Nordeste 49 Nordeste 0 -- -- 40
2018-05-09 14:00:00 18.7 21 Nordeste 46 Este 0 -- -- 42
2018-05-09 13:00:00 18.7 22 Nordeste 41 Este 0 -- -- 41
2018-05-09 12:00:00 18.8 15 Nordeste 41 Este 0 -- -- 41
2018-05-09 11:00:00 17.9 17 Nordeste 33 Este 0 -- -- 40
2018-05-09 10:00:00 16 10 Norte 28 Este 0 -- -- 44
2018-05-09 09:00:00 11.8 12 Nordeste 33 Nordeste 0 -- -- 61
2018-05-09 08:00:00 4.7 0 Calma 9 Noroeste 0 -- -- 93
2018-05-09 07:00:00 4 0 Calma -- -- 0 -- -- 93
2018-05-09 06:00:00 4.3 0 Calma -- -- 0 -- -- 92
2018-05-09 05:00:00 4.9 0 Calma -- -- 0 -- -- 91
2018-05-09 04:00:00 5.9 0 Calma 6 Sudeste 0 -- -- 89
2018-05-09 03:00:00 7 3 Noroeste 6 Sudeste 0 -- -- 86
2018-05-09 02:00:00 8.7 3 Sudoeste 15 Sudoeste 0 -- -- 80
2018-05-09 01:00:00 11.6 6 Oeste 31 Este 0 -- -- 69
2018-05-09 00:00:00 13 7 Nordeste 31 Nordeste 0 -- -- 63
2018-05-08 23:00:00 13.6 15 Nordeste 37 Nordeste 0 -- -- 63
2018-05-08 22:00:00 13.4 6 Nordeste 20 Este 0 -- -- 59
2018-05-08 21:00:00 14.8 10 Nordeste 28 Este 0 -- -- 56
2018-05-08 20:00:00 15.7 10 Nordeste 31 Este 0 -- -- 51
2018-05-08 19:00:00 17.9 13 Nordeste 30 Este 0 -- -- 45
2018-05-08 18:00:00 18.4 15 Nordeste 36 Nordeste 0 -- -- 44
2018-05-08 17:00:00 18.1 17 Este 33 Este 0 -- -- 46
2018-05-08 16:00:00 19 13 Nordeste 29 Este 0 -- -- 51
2018-05-08 15:00:00 13.9 14 Nordeste 33 Nordeste 0 -- -- 65
2018-05-08 14:00:00 14.4 16 Nordeste 27 Nordeste 0 -- -- 61
2018-05-08 13:00:00 15.2 14 Nordeste 34 Este 0 -- -- 57
2018-05-08 12:00:00 18.4 6 Sur 18 Sudoeste 0 -- -- 56
2018-05-08 11:00:00 14.4 10 Sudoeste 17 Sudoeste 0 -- -- 73
2018-05-08 10:00:00 10.7 5 Sudoeste 9 Sudoeste 0 -- -- 89
2018-05-08 09:00:00 9.5 0 Calma 6 Este 0 -- -- 94
2018-05-08 08:00:00 8 0 Calma 6 Oeste 0 -- -- 97
2018-05-08 07:00:00 7.4 0 Calma 8 Este 0 -- -- 97
2018-05-08 06:00:00 7.9 0 Calma 10 Oeste 0 -- -- 96
2018-05-08 05:00:00 7.8 3 Sudeste 9 Sudoeste 0 -- -- 96
2018-05-08 04:00:00 8.2 3 Oeste 9 Sudoeste 0.4 -- -- 94
2018-05-08 03:00:00 8.7 5 Nordeste 22 Nordeste 7.4 -- -- 87
2018-05-08 02:00:00 9.6 8 Nordeste 19 Este 5.6 -- -- 91
2018-05-08 01:00:00 10.2 3 Sudoeste 7 Sudoeste 1.6 -- -- 95
2018-05-08 00:00:00 10.5 4 Oeste 9 Norte 0.4 -- -- 90
2018-05-07 23:00:00 10.8 0 Calma 7 Sudoeste 0.8 -- -- 93
2018-05-07 22:00:00 11.1 0 Calma 7 Sudoeste 1.6 -- -- 94
2018-05-07 21:00:00 11.5 2 Sudeste 14 Sur 3.6 -- -- 92
2018-05-07 20:00:00 13 7 Nordeste 32 Este 2.6 -- -- 78
2018-05-07 19:00:00 16.1 12 Sudoeste 23 Sudoeste 0 -- -- 70
2018-05-07 18:00:00 18.1 13 Sudoeste 21 Sudoeste 0 -- -- 62
2018-05-07 17:00:00 15.1 6 Norte 49 Este 1 -- -- 81
2018-05-07 16:00:00 21.6 13 Nordeste 32 Este 0 -- -- 42
2018-05-07 15:00:00 22.3 12 Nordeste 31 Nordeste 0 -- -- 41
2018-05-07 14:00:00 21 15 Este 40 Este 0 -- -- 42
2018-05-07 13:00:00 19.8 19 Este 34 Este 0 -- -- 44
2018-05-07 12:00:00 17.8 4 Oeste 10 Oeste 0 -- -- 58
2018-05-07 11:00:00 15.7 0 Calma 5 Sudeste 0 -- -- 64
2018-05-07 10:00:00 14.5 5 Oeste 10 Oeste 0 -- -- 68
2018-05-07 09:00:00 12.1 5 Este 6 Este 0 -- -- 75
2018-05-07 08:00:00 9.4 0 Calma 4 Sur 0 -- -- 90
2018-05-07 07:00:00 8.9 0 Calma 6 Oeste 0 -- -- 90
2018-05-07 06:00:00 8.7 3 Sudeste 11 Noroeste 0 -- -- 89
2018-05-07 05:00:00 8.2 2 Este 9 Oeste 0 -- -- 90
2018-05-07 04:00:00 7.9 0 Calma 5 Sudeste 0 -- -- 91
2018-05-07 03:00:00 8.7 4 Norte 7 Sudeste 0 -- -- 89
2018-05-07 02:00:00 10.1 0 Calma -- -- 0 -- -- 86
2018-05-07 01:00:00 10.6 0 Calma 6 Sudeste 0 -- -- 83
2018-05-07 00:00:00 10.4 4 Sudeste 8 Sudeste 0 -- -- 86
2018-05-06 23:00:00 11.3 0 Calma 9 Norte 0 -- -- 80
2018-05-06 22:00:00 12.8 0 Calma 11 Sudeste 0 -- -- 78
2018-05-06 21:00:00 14.9 3 Sur 13 Oeste 0 -- -- 71
2018-05-06 20:00:00 17 7 Norte 31 Este 0 -- -- 49
2018-05-06 19:00:00 19.9 12 Nordeste 24 Este 0 -- -- 40
2018-05-06 18:00:00 19.2 16 Nordeste 31 Nordeste 0 -- -- 43
2018-05-06 17:00:00 19.6 12 Nordeste 29 Este 0 -- -- 42
2018-05-06 16:00:00 18.7 11 Nordeste 33 Nordeste 0 -- -- 43
2018-05-06 15:00:00 19 17 Nordeste 38 Este 0 -- -- 40
2018-05-06 14:00:00 18.7 18 Nordeste 35 Este 0 -- -- 40
2018-05-06 13:00:00 19.5 14 Nordeste 25 Nordeste 0 -- -- 40
2018-05-06 12:00:00 18 14 Nordeste 32 Este 0 -- -- 39
2018-05-06 11:00:00 16.7 4 Sur 10 Oeste 0 -- -- 48
2018-05-06 10:00:00 13.4 0 Calma -- -- 0 -- -- 57
2018-05-06 09:00:00 5.9 0 Calma -- -- 0 -- -- 95
2018-05-06 08:00:00 3 0 Calma -- -- 0 -- -- 96
2018-05-06 07:00:00 2.6 0 Calma -- -- 0 -- -- 94
2018-05-06 06:00:00 3.1 0 Calma -- -- 0 -- -- 95
2018-05-06 05:00:00 3.3 0 Calma -- -- 0 -- -- 94
2018-05-06 04:00:00 3.9 0 Calma -- -- 0 -- -- 92
2018-05-06 03:00:00 4.5 0 Calma 5 Este 0 -- -- 93
2018-05-06 02:00:00 5.4 0 Calma 8 Sudeste 0 -- -- 91
2018-05-06 01:00:00 5.9 0 Calma 7 Sudeste 0 -- -- 89
2018-05-06 00:00:00 6.8 0 Calma 7 Sudeste 0 -- -- 87
2018-05-05 23:00:00 8 0 Calma 8 Noroeste 0 -- -- 85
2018-05-05 22:00:00 9.7 0 Calma 5 Sudeste 0 -- -- 83
2018-05-05 21:00:00 12.5 0 Calma 16 Sudoeste 0 -- -- 74
2018-05-05 20:00:00 14.2 8 Sudoeste 18 Sudoeste 0 -- -- 69
2018-05-05 19:00:00 15.7 4 Este 21 Oeste 0 -- -- 64
2018-05-05 18:00:00 17 4 Sudoeste 23 Sudoeste 0 -- -- 58
2018-05-05 17:00:00 17.4 13 Nordeste 30 Este 0 -- -- 48
2018-05-05 16:00:00 16 18 Este 40 Este 0 -- -- 51
2018-05-05 15:00:00 16.2 20 Nordeste 44 Nordeste 0 -- -- 51
2018-05-05 14:00:00 14.4 20 Nordeste 36 Este 0 -- -- 57
2018-05-05 13:00:00 14.8 14 Nordeste 39 Este 0 -- -- 56
2018-05-05 12:00:00 16.7 19 Nordeste 36 Nordeste 0 -- -- 51
2018-05-05 11:00:00 14.3 17 Nordeste 33 Este 0 -- -- 56
2018-05-05 10:00:00 14.9 18 Nordeste 39 Nordeste 0 -- -- 53
2018-05-05 09:00:00 13 13 Nordeste 36 Norte 0 -- -- 59
2018-05-05 08:00:00 12.7 20 Este 47 Este 0 -- -- 60
2018-05-05 07:00:00 12.8 10 Nordeste 54 Este 0 -- -- 56
2018-05-05 06:00:00 12.6 17 Nordeste 39 Nordeste 0 -- -- 59
2018-05-05 05:00:00 12.7 21 Nordeste 43 Este 0 -- -- 59
2018-05-05 04:00:00 12.3 18 Nordeste 47 Este 0 -- -- 58
2018-05-05 03:00:00 12.3 24 Nordeste 46 Nordeste 0 -- -- 57
2018-05-05 02:00:00 11.6 19 Nordeste 47 Este 0 -- -- 59
2018-05-05 01:00:00 11.3 18 Nordeste 40 Este 0 -- -- 62
2018-05-05 00:00:00 11.3 15 Nordeste 49 Este 0 -- -- 59
2018-05-04 23:00:00 11.4 24 Nordeste 47 Este 0 -- -- 57
2018-05-04 22:00:00 11.7 26 Nordeste 56 Este 0 -- -- 56
2018-05-04 21:00:00 12.1 32 Nordeste 56 Este 0 -- -- 56
2018-05-04 20:00:00 13 26 Nordeste 56 Nordeste 0 -- -- 53
2018-05-04 19:00:00 14.6 19 Nordeste 44 Nordeste 0 -- -- 48
2018-05-04 18:00:00 14.5 25 Este 52 Nordeste 0 -- -- 51
2018-05-04 17:00:00 14.8 27 Nordeste 53 Este 0 -- -- 49
2018-05-04 16:00:00 14.5 29 Este 58 Este 0 -- -- 52
2018-05-04 15:00:00 15.1 30 Este 55 Este 0 -- -- 50
2018-05-04 14:00:00 14.3 28 Nordeste 60 Este 0 -- -- 49
2018-05-04 13:00:00 13.5 36 Nordeste 69 Este 0 -- -- 48
2018-05-04 12:00:00 12 33 Nordeste 67 Nordeste 0 -- -- 53
2018-05-04 11:00:00 12 42 Este 73 Este 0 -- -- 55
2018-05-04 10:00:00 10 24 Nordeste 57 Este 0 -- -- 54
2018-05-04 09:00:00 9.3 30 Nordeste 53 Este 0 -- -- 54
2018-05-04 08:00:00 8.3 32 Nordeste 77 Nordeste 0 -- -- 57
2018-05-04 07:00:00 8.2 35 Nordeste 73 Nordeste 0 -- -- 56
2018-05-04 06:00:00 8.3 36 Nordeste 67 Este 0 -- -- 57
2018-05-04 05:00:00 8.1 37 Nordeste 71 Nordeste 0 -- -- 59
2018-05-04 04:00:00 8.4 32 Nordeste 75 Este 0 -- -- 58
2018-05-04 03:00:00 8.4 36 Nordeste 67 Este 0 -- -- 59
2018-05-04 02:00:00 8.7 39 Nordeste 68 Este 0 -- -- 59
2018-05-04 01:00:00 8.9 35 Este 63 Este 0 -- -- 60
2018-05-04 00:00:00 9.1 33 Nordeste 63 Este 0 -- -- 59
2018-05-03 23:00:00 9.6 29 Este 58 Este 0 -- -- 56
2018-05-03 22:00:00 9.1 29 Este 69 Nordeste 0 -- -- 58
2018-05-03 21:00:00 9.1 32 Nordeste 67 Este 0 -- -- 59
2018-05-03 20:00:00 8.7 34 Este 63 Este 0 -- -- 62
2018-05-03 19:00:00 8.8 22 Este 62 Este 0 -- -- 64
2018-05-03 18:00:00 9.3 36 Este 66 Este 0 -- -- 64
2018-05-03 17:00:00 9 33 Nordeste 56 Este 0.2 -- -- 64
2018-05-03 16:00:00 9.2 23 Nordeste 49 Este 0.2 -- -- 67
2018-05-03 15:00:00 9 23 Este 40 Este 0 -- -- 63
2018-05-03 14:00:00 8.9 18 Nordeste 36 Este 0 -- -- 63
2018-05-03 13:00:00 8.3 11 Nordeste 28 Nordeste 0 -- -- 70
2018-05-03 12:00:00 7.7 12 Nordeste 35 Nordeste 0 -- -- 71
2018-05-03 11:00:00 7.8 18 Este 46 Este 0.2 -- -- 68
2018-05-03 10:00:00 7.6 23 Este 42 Nordeste 0 -- -- 72
2018-05-03 09:00:00 7.1 12 Nordeste 30 Nordeste 0.4 -- -- 78
2018-05-03 08:00:00 6.1 3 Este 11 Sudoeste 1.2 -- -- 97
2018-05-03 07:00:00 5.8 4 Oeste 6 Noroeste 1.6 -- -- 96
2018-05-03 06:00:00 5.8 0 Calma 8 Sudoeste 1 -- -- 96
2018-05-03 05:00:00 6 3 Sudeste 5 Este 0.8 -- -- 95
2018-05-03 04:00:00 6.1 3 Este 7 Sudeste 0.6 -- -- 92
2018-05-03 03:00:00 6.4 3 Este 8 Sudoeste 0 -- -- 90
2018-05-03 02:00:00 7.1 3 Nordeste 18 Norte 0.4 -- -- 82
2018-05-03 01:00:00 7.9 6 Norte 24 Nordeste 0 -- -- 74
2018-05-03 00:00:00 9 8 Nordeste 23 Nordeste 0 -- -- 62
2018-05-02 23:00:00 9 8 Nordeste 24 Norte 0 -- -- 60
2018-05-02 22:00:00 8.8 11 Nordeste 28 Nordeste 0 -- -- 58
2018-05-02 21:00:00 8.3 9 Nordeste 33 Nordeste 0 -- -- 62
2018-05-02 20:00:00 8.5 15 Nordeste 27 Nordeste 0 -- -- 64
2018-05-02 19:00:00 9.4 15 Nordeste 27 Este 0 -- -- 57
2018-05-02 18:00:00 11 15 Nordeste 33 Nordeste 0 -- -- 48
2018-05-02 17:00:00 12.5 14 Nordeste 35 Nordeste 0 -- -- 42
2018-05-02 16:00:00 14.4 11 Nordeste 27 Este 0 -- -- 37
2018-05-02 15:00:00 14.5 11 Nordeste 25 Nordeste 0 -- -- 36
2018-05-02 14:00:00 13.7 14 Nordeste 29 Este 0 -- -- 34
2018-05-02 13:00:00 14.3 9 Nordeste 28 Este 0 -- -- 33
2018-05-02 12:00:00 13.2 10 Nordeste 27 Este 0 -- -- 35
2018-05-02 11:00:00 11.6 13 Nordeste 26 Este 0 -- -- 32
2018-05-02 10:00:00 6.1 6 Oeste 13 Sudoeste 0 -- -- 54
2018-05-02 09:00:00 -0.6 3 Nordeste 7 Oeste 0 -- -- 80
2018-05-02 08:00:00 -3.2 0 Calma 5 Este 0 -- -- 88
2018-05-02 07:00:00 -3.3 3 Sudeste 8 Sudeste 0 -- -- 87
2018-05-02 06:00:00 -2.9 4 Sudoeste 8 Sudoeste 0 -- -- 88
2018-05-02 05:00:00 -2.8 0 Calma 4 Sudeste 0 -- -- 86
2018-05-02 04:00:00 -1.8 0 Calma 6 Sudeste 0 -- -- 85
2018-05-02 03:00:00 -1.1 0 Calma 3 Este 0 -- -- 87
2018-05-02 02:00:00 -0.4 0 Calma 4 Sudeste 0 -- -- 84
2018-05-02 01:00:00 0.6 0 Calma 4 Sudeste 0 -- -- 82
2018-05-02 00:00:00 1 0 Calma 6 Nordeste 0 -- -- 81
2018-05-01 23:00:00 1.9 0 Calma 8 Sudoeste 0 -- -- 75
2018-05-01 22:00:00 4.7 7 Sudoeste 22 Nordeste 0 -- -- 58
2018-05-01 21:00:00 6.2 13 Este 36 Este 0 -- -- 47
2018-05-01 20:00:00 6.6 13 Nordeste 33 Nordeste 0 -- -- 49
2018-05-01 19:00:00 8.4 14 Nordeste 30 Este 0 -- -- 45
2018-05-01 18:00:00 8.8 14 Nordeste 31 Nordeste 0 -- -- 45
2018-05-01 17:00:00 8.1 14 Nordeste 34 Este 0 -- -- 44
2018-05-01 16:00:00 9.8 16 Nordeste 35 Nordeste 0 -- -- 42
2018-05-01 15:00:00 10.1 15 Nordeste 35 Nordeste 0 -- -- 39
2018-05-01 14:00:00 9.9 15 Nordeste 30 Este 0 -- -- 40
2018-05-01 13:00:00 8.9 16 Nordeste 34 Este 0 -- -- 42
2018-05-01 12:00:00 8.2 17 Nordeste 41 Este 0 -- -- 47
2018-05-01 11:00:00 7.4 19 Nordeste 42 Este 0 -- -- 51
2018-05-01 10:00:00 5.9 19 Este 38 Este 0 -- -- 57
2018-05-01 09:00:00 0.9 6 Norte 15 Norte 0 -- -- 86
2018-05-01 08:00:00 -0.9 2 Noroeste 5 Sudoeste 0 -- -- 92
2018-05-01 07:00:00 -2.6 0 Calma 4 Sudeste 0 -- -- 95
2018-05-01 06:00:00 -2.2 0 Calma 7 Sudeste 0 -- -- 95
2018-05-01 05:00:00 -2 0 Calma 4 Este 0 -- -- 95
2018-05-01 04:00:00 -1.7 0 Calma 5 Sudeste 0 -- -- 95
2018-05-01 03:00:00 -1.3 0 Calma -- -- 0 -- -- 96
2018-05-01 02:00:00 -1 0 Calma -- -- 0 -- -- 95
2018-05-01 01:00:00 -0.5 0 Calma 0 Calma 0 -- -- 95
2018-05-01 00:00:00 -0.2 0 Calma 0 Calma 0 -- -- 94
2018-04-30 23:00:00 0.6 0 Calma -- -- 0 -- -- 94
2018-04-30 22:00:00 1 0 Calma 3 Este 0 -- -- 91
2018-04-30 21:00:00 2.8 0 Calma 13 Sudoeste 0 -- -- 88
2018-04-30 20:00:00 4.2 8 Oeste 24 Sudoeste 0 -- -- 81
2018-04-30 19:00:00 4.5 14 Sudoeste 28 Sudoeste 0 -- -- 77
2018-04-30 18:00:00 5.5 2 Sudeste 21 Oeste 0.2 -- -- 75
2018-04-30 17:00:00 6.4 12 Sudoeste 26 Sudoeste 0 -- -- 66
2018-04-30 16:00:00 6.9 8 Oeste 18 Oeste 0 -- -- 66
2018-04-30 15:00:00 5.4 13 Oeste 33 Sudoeste 0 -- -- 77
2018-04-30 14:00:00 7.7 15 Sudoeste 27 Sudoeste 0 -- -- 56
2018-04-30 13:00:00 9.2 10 Noroeste 24 Oeste 0 -- -- 54
2018-04-30 12:00:00 7.7 13 Sudoeste 22 Sudoeste 0 -- -- 51
2018-04-30 11:00:00 7.9 5 Sudoeste 15 Sudoeste 0 -- -- 54
2018-04-30 10:00:00 7.1 4 Oeste 11 Oeste 0 -- -- 73
2018-04-30 09:00:00 3.6 0 Calma 3 Este 0 -- -- 97
2018-04-30 08:00:00 2.5 0 Calma 8 Sur 0 -- -- 95
2018-04-30 07:00:00 2.8 0 Calma 7 Sudoeste 0 -- -- 94
2018-04-30 06:00:00 2.9 3 Sudoeste 7 Sudoeste 0 -- -- 94
2018-04-30 05:00:00 3.1 3 Sudoeste 6 Sudeste 0 -- -- 94
2018-04-30 04:00:00 3.1 2 Sudeste 9 Sudoeste 0.2 -- -- 96
2018-04-30 03:00:00 2.9 2 Oeste 7 Oeste 0 -- -- 95
2018-04-30 02:00:00 3.7 0 Calma 6 Este 0.2 -- -- 96
2018-04-30 01:00:00 3.6 0 Calma 6 Oeste 0 -- -- 97
2018-04-30 00:00:00 3.6 2 Sudoeste 6 Oeste 0 -- -- 96
2018-04-29 23:00:00 3.4 3 Norte 7 Oeste 0 -- -- 96
2018-04-29 22:00:00 3.4 0 Calma 5 Sudeste 0 -- -- 95
2018-04-29 21:00:00 4 0 Calma 12 Oeste 0.6 -- -- 93
2018-04-29 20:00:00 5.3 0 Calma 6 Sudoeste 0 -- -- 87
2018-04-29 19:00:00 5.7 4 Sudoeste 7 Noroeste 0 -- -- 81
2018-04-29 18:00:00 5.2 3 Sudoeste 9 Oeste 0 -- -- 82
2018-04-29 17:00:00 3.8 2 Oeste 7 Sudeste 0.6 -- -- 90
2018-04-29 16:00:00 1.8 2 Norte 16 Oeste 4.2 -- -- 92
2018-04-29 15:00:00 4 14 Oeste 29 Oeste 1.6 -- -- 85
2018-04-29 14:00:00 8.5 8 Sudoeste 18 Oeste 0 -- -- 66
2018-04-29 13:00:00 8.3 3 Norte 8 Noroeste 0 -- -- 74
2018-04-29 12:00:00 4.9 6 Sudoeste 10 Sudoeste 0.4 -- -- 88
2018-04-29 11:00:00 4.2 3 Noroeste 9 Sudeste 1.2 -- -- 92
2018-04-29 10:00:00 4.5 0 Calma 10 Sudoeste 0.8 -- -- 93
2018-04-29 09:00:00 4.8 3 Sudoeste 9 Sur 0.8 -- -- 94
2018-04-29 08:00:00 4.7 0 Calma 17 Oeste 1.2 -- -- 95
2018-04-29 07:00:00 5.1 10 Oeste 21 Sudoeste 4.4 -- -- 91
2018-04-29 06:00:00 6.2 3 Sur 37 Oeste 9.8 -- -- 93
2018-04-29 05:00:00 6.4 2 Sudeste 10 Sudoeste 1.2 -- -- 98
2018-04-29 04:00:00 6.6 5 Sudoeste 36 Oeste 12.8 -- -- 95
2018-04-29 03:00:00 9 9 Sur 42 Oeste 4.8 -- -- 94
2018-04-29 02:00:00 9.1 12 Sudoeste 28 Sudoeste 3.2 -- -- 92
2018-04-29 01:00:00 9.1 5 Sur 12 Sur 0.8 -- -- 93
2018-04-29 00:00:00 8.9 3 Sur 14 Sudoeste 0.2 -- -- 92
2018-04-28 23:00:00 9 9 Sudoeste 18 Sudoeste 1.2 -- -- 93
2018-04-28 22:00:00 6.5 3 Noroeste 9 Este 2 -- -- 95
2018-04-28 21:00:00 8.8 5 Noroeste 28 Sur 7.6 -- -- 83
2018-04-28 20:00:00 14.5 5 Sur 22 Sudoeste 0 -- -- 57
2018-04-28 19:00:00 15.3 8 Sudoeste 27 Sudeste 0 -- -- 50
2018-04-28 18:00:00 16.4 8 Sudoeste 39 Sudoeste 0 -- -- 48
2018-04-28 17:00:00 16.7 16 Oeste 41 Oeste 0 -- -- 45
2018-04-28 16:00:00 17.3 23 Sudoeste 39 Sudoeste 0 -- -- 43
2018-04-28 15:00:00 17.3 12 Sudoeste 34 Sudoeste 0 -- -- 40
2018-04-28 14:00:00 15.7 14 Sudoeste 31 Oeste 0 -- -- 53
2018-04-28 13:00:00 15.8 16 Sudoeste 39 Sudoeste 0 -- -- 56
2018-04-28 12:00:00 15.1 17 Oeste 32 Oeste 0 -- -- 65
2018-04-28 11:00:00 12.6 16 Sudoeste 33 Oeste 0 -- -- 76
2018-04-28 10:00:00 12.3 16 Sudoeste 29 Oeste 0 -- -- 79
2018-04-28 09:00:00 11.2 8 Sudoeste 23 Oeste 0 -- -- 86
2018-04-28 08:00:00 10.3 5 Sur 16 Sudoeste 0 -- -- 91
2018-04-28 07:00:00 10.4 7 Sur 15 Sudoeste 0 -- -- 91
2018-04-28 06:00:00 9.9 5 Sur 16 Sur 0 -- -- 96
2018-04-28 05:00:00 9.4 0 Calma 5 Oeste 0.6 -- -- 97
2018-04-28 04:00:00 9.5 3 Este 6 Oeste 0.4 -- -- 96
2018-04-28 03:00:00 9.6 0 Calma 0 Calma 1 -- -- 96
2018-04-28 02:00:00 9.7 0 Calma -- -- 1 -- -- 95
2018-04-28 01:00:00 9.7 0 Calma 9 Sudoeste 0.8 -- -- 94
2018-04-28 00:00:00 9.5 0 Calma 13 Norte 0.2 -- -- 92
2018-04-27 23:00:00 9.5 8 Nordeste 20 Norte 2.8 -- -- 85
2018-04-27 22:00:00 11.8 6 Noroeste 17 Oeste 2.6 -- -- 80
2018-04-27 21:00:00 12.8 4 Norte 12 Norte 2.4 -- -- 90
2018-04-27 20:00:00 13.9 4 Nordeste 13 Norte 1.4 -- -- 89
2018-04-27 19:00:00 16.7 7 Sudeste 19 Sur 1.8 -- -- 70
2018-04-27 18:00:00 20.2 0 Calma 11 Norte 0 -- -- 48
2018-04-27 17:00:00 16.9 4 Este 24 Sur 1 -- -- 63
2018-04-27 16:00:00 18.1 14 Sur 37 Sudoeste 0 -- -- 49
2018-04-27 15:00:00 20 7 Oeste 32 Sudoeste 0 -- -- 43
2018-04-27 14:00:00 20.8 14 Sudoeste 32 Sudoeste 0 -- -- 43
2018-04-27 13:00:00 21.8 7 Sudoeste 32 Sudoeste 0 -- -- 41
2018-04-27 12:00:00 21.1 5 Oeste 22 Sudoeste 0 -- -- 45
2018-04-27 11:00:00 18 2 Oeste 10 Oeste 0 -- -- 56
2018-04-27 10:00:00 13.1 0 Calma 7 Nordeste 0 -- -- 72
2018-04-27 09:00:00 8.5 0 Calma -- -- 0 -- -- 94
2018-04-27 08:00:00 6.4 0 Calma 9 Sudoeste 0 -- -- 94
2018-04-27 07:00:00 6.4 0 Calma 3 Este 0 -- -- 93
2018-04-27 06:00:00 7.1 2 Sudeste 6 Oeste 0 -- -- 92
2018-04-27 05:00:00 7.7 0 Calma 5 Sudeste 0 -- -- 90
2018-04-27 04:00:00 8.5 0 Calma 5 Sudeste 0 -- -- 90
2018-04-27 03:00:00 8.6 0 Calma 5 Este 0 -- -- 90
2018-04-27 02:00:00 9.6 0 Calma 6 Este 0 -- -- 85
2018-04-27 01:00:00 9.5 2 Este 5 Sudeste 0 -- -- 85
2018-04-27 00:00:00 9.9 0 Calma 0 Calma 0 -- -- 83
2018-04-26 23:00:00 11.2 0 Calma 6 Este 0 -- -- 77
2018-04-26 22:00:00 12.7 0 Calma 8 Nordeste 0 -- -- 70
2018-04-26 21:00:00 15.6 4 Nordeste 13 Norte 0 -- -- 55
2018-04-26 20:00:00 18 6 Noroeste 17 Noroeste 0 -- -- 43
2018-04-26 19:00:00 21.5 10 Norte 22 Norte 0 -- -- 37
2018-04-26 18:00:00 21 4 Nordeste 21 Noroeste 0 -- -- 44
2018-04-26 17:00:00 21.2 10 Noroeste 23 Oeste 0 -- -- 38
2018-04-26 16:00:00 21.1 7 Sudeste 16 Sur 0 -- -- 45
2018-04-26 15:00:00 21.2 8 Sudeste 17 Sudeste 0 -- -- 46
2018-04-26 14:00:00 21.6 9 Oeste 20 Sudoeste 0 -- -- 41
2018-04-26 13:00:00 21.4 9 Oeste 22 Sudoeste 0.4 -- -- 45
2018-04-26 12:00:00 19.8 6 Oeste 12 Sudoeste 0 -- -- 48
2018-04-26 11:00:00 18.1 2 Noroeste 6 Nordeste 0 -- -- 52
2018-04-26 10:00:00 13.6 2 Oeste 5 Oeste 0 -- -- 62
2018-04-26 09:00:00 7.7 2 Norte 5 Sudeste 0 -- -- 96
2018-04-26 08:00:00 5.7 0 Calma 5 Este 0 -- -- 94
2018-04-26 07:00:00 5.4 0 Calma 5 Sudeste 0 -- -- 93
2018-04-26 06:00:00 6.4 0 Calma 6 Sudeste 0 -- -- 92
2018-04-26 05:00:00 6.9 0 Calma -- -- 0 -- -- 90
2018-04-26 04:00:00 7.5 0 Calma -- -- 0 -- -- 88
2018-04-26 03:00:00 8.6 0 Calma -- -- 0 -- -- 86
2018-04-26 02:00:00 10.2 0 Calma -- -- 0 -- -- 81
2018-04-26 01:00:00 11.9 0 Calma 4 Sur 0 -- -- 80
2018-04-26 00:00:00 11.4 0 Calma 6 Sudeste 0 -- -- 82
2018-04-25 23:00:00 11.7 0 Calma 8 Oeste 0 -- -- 76
2018-04-25 22:00:00 13.4 3 Sudoeste 8 Oeste 0 -- -- 72
2018-04-25 21:00:00 15.7 0 Calma 8 Noroeste 0 -- -- 67
2018-04-25 20:00:00 16.8 6 Sudeste 37 Sudoeste 0 -- -- 60
2018-04-25 19:00:00 18.4 22 Oeste 33 Oeste 0 -- -- 52
2018-04-25 18:00:00 21.5 10 Oeste 31 Nordeste 0 -- -- 41
2018-04-25 17:00:00 22.8 12 Nordeste 29 Este 0 -- -- 32
2018-04-25 16:00:00 24.7 9 Nordeste 21 Nordeste 0 -- -- 29
2018-04-25 15:00:00 25.9 8 Nordeste 19 Sudeste 0 -- -- 26
2018-04-25 14:00:00 24.7 7 Oeste 16 Sudeste 0 -- -- 32
2018-04-25 13:00:00 23.4 7 Oeste 14 Oeste 0 -- -- 35
2018-04-25 12:00:00 22.5 3 Sudeste 6 Este 0 -- -- 44
2018-04-25 11:00:00 18.8 4 Este 7 Nordeste 0 -- -- 47
2018-04-25 10:00:00 13.9 4 Sudoeste 7 Sudoeste 0 -- -- 59
2018-04-25 09:00:00 7.6 0 Calma 6 Sudeste 0 -- -- 91
2018-04-25 08:00:00 5.1 0 Calma 0 Calma 0 -- -- 93
2018-04-25 07:00:00 4.6 0 Calma -- -- 0 -- -- 93
2018-04-25 06:00:00 5 0 Calma -- -- 0 -- -- 93
2018-04-25 05:00:00 5.5 0 Calma -- -- 0 -- -- 90
2018-04-25 04:00:00 6.4 0 Calma 0 Calma 0 -- -- 90
2018-04-25 03:00:00 6.9 0 Calma -- -- 0 -- -- 88
2018-04-25 02:00:00 7.9 0 Calma -- -- 0 -- -- 86
2018-04-25 01:00:00 8.9 0 Calma 8 Sudoeste 0 -- -- 85
2018-04-25 00:00:00 10.2 2 Sudeste 6 Este 0 -- -- 81